Naeroeysund — LF5997 — position and weather

sailwx.info

Track history (hours):
 
Tides and Currents Weather Stations Pressure Air Temp Water Temp Dewpoint Dewpoint Depression Visibility Wind Speed Wind Dir Waves Ship Positions

Naeroeysund

Last reported at 2018-Jun-18 19:30 UTC. Time now 2018-Jun-18 19:28 UTC.
Position N 64°51' E 011°16'.

Length 15 m.

Type: Ship. MMSI: 257029950.

Date/timePositionNaut miles runAvg speedWind from/ knotsBaromVisibWave heightAir tempDewpointWater temp
2018-Jun-18 19:30N 64°51' E 011°16'0 0.0
2018-Jun-18 19:00N 64°51' E 011°16'0 0.0
2018-Jun-18 18:27N 64°51' E 011°16'0 0.0
2018-Jun-18 18:00N 64°51' E 011°16'0 0.0
2018-Jun-18 17:29N 64°51' E 011°16'0 0.0
2018-Jun-18 17:00N 64°51' E 011°16'0 0.0
2018-Jun-18 16:28N 64°51' E 011°16'0 0.0
2018-Jun-18 15:58N 64°51' E 011°16'0 0.0
2018-Jun-18 15:29N 64°51' E 011°16'0 0.0
2018-Jun-18 14:58N 64°51' E 011°16'0 0.0
2018-Jun-18 14:28N 64°51' E 011°16'0 0.0
2018-Jun-18 13:59N 64°51' E 011°16'0 0.0
2018-Jun-18 13:29N 64°51' E 011°16'0 0.0
2018-Jun-18 13:00N 64°51' E 011°16'0 0.0
2018-Jun-18 12:29N 64°51' E 011°16'0 1.0
2018-Jun-18 12:00N 64°50' E 011°16'713.8
2018-Jun-18 11:30N 64°44' E 011°20'610.3
2018-Jun-18 10:57N 64°45' E 011°33'0 0.0
2018-Jun-18 10:30N 64°45' E 011°33'0 0.0
2018-Jun-18 09:51N 64°45' E 011°33'0 0.1
2018-Jun-18 09:05N 64°45' E 011°33'0 0.0
2018-Jun-18 08:41N 64°45' E 011°33'0 0.6
2018-Jun-18 08:31N 64°45' E 011°32'4 7.1
2018-Jun-18 08:01N 64°43' E 011°27'1 1.9
2018-Jun-18 07:30N 64°43' E 011°29'0 0.3
2018-Jun-18 06:58N 64°43' E 011°28'1 1.3
2018-Jun-18 06:28N 64°43' E 011°27'4 7.8
2018-Jun-18 06:00N 64°43' E 011°19'815.3
2018-Jun-18 05:30N 64°50' E 011°15'1 1.5
2018-Jun-18 05:00N 64°51' E 011°16'0 0.0
2018-Jun-18 04:30N 64°51' E 011°16'0 0.0
2018-Jun-18 04:00N 64°51' E 011°16'0 0.0
2018-Jun-18 03:28N 64°51' E 011°16'0 0.0
2018-Jun-18 02:59N 64°51' E 011°16'0 0.0
2018-Jun-18 02:29N 64°51' E 011°16'0 0.0
2018-Jun-18 01:59N 64°51' E 011°16'0 0.0
2018-Jun-18 01:29N 64°51' E 011°16'0 0.0
2018-Jun-18 00:59N 64°51' E 011°16'0 0.0
2018-Jun-18 00:29N 64°51' E 011°16'0 0.0
2018-Jun-18 00:00N 64°51' E 011°16'0 0.0
2018-Jun-17 23:29N 64°51' E 011°16'0 0.0
2018-Jun-17 22:58N 64°51' E 011°16'0 0.0
2018-Jun-17 22:29N 64°51' E 011°16'0 0.0
2018-Jun-17 22:00N 64°51' E 011°16'0 0.0
2018-Jun-17 21:28N 64°51' E 011°16'0 0.0
2018-Jun-17 20:59N 64°51' E 011°16'0 0.0
2018-Jun-17 20:29N 64°51' E 011°16'0 0.0
2018-Jun-17 20:00N 64°51' E 011°16'0 0.0
2018-Jun-17 19:30N 64°51' E 011°16'0 0.0
2018-Jun-17 19:00N 64°51' E 011°16'0 0.0
2018-Jun-17 18:28N 64°51' E 011°16'0 0.0
2018-Jun-17 17:58N 64°51' E 011°16'0 0.0
2018-Jun-17 17:29N 64°51' E 011°16'0 0.0
2018-Jun-17 16:58N 64°51' E 011°16'0 0.0
2018-Jun-17 16:28N 64°51' E 011°16'0 0.0
2018-Jun-17 15:59N 64°51' E 011°16'0 0.0
2018-Jun-17 15:28N 64°51' E 011°16'0 0.0
2018-Jun-17 14:59N 64°51' E 011°16'0 0.0
2018-Jun-17 14:29N 64°51' E 011°16'0 0.0
2018-Jun-17 14:00N 64°51' E 011°16'0 0.0
2018-Jun-17 13:30N 64°51' E 011°16'0 0.0
2018-Jun-17 12:58N 64°51' E 011°16'0 0.0
2018-Jun-17 12:28N 64°51' E 011°16'0 0.0
2018-Jun-17 11:53N 64°51' E 011°16'0 0.0
2018-Jun-17 11:29N 64°51' E 011°16'0 0.0
2018-Jun-17 10:59N 64°51' E 011°16'0 0.0
2018-Jun-17 10:29N 64°51' E 011°16'0 0.0
2018-Jun-17 10:00N 64°51' E 011°16'0 0.0
2018-Jun-17 09:29N 64°51' E 011°16'0 0.0
2018-Jun-17 08:59N 64°51' E 011°16'0 0.0
2018-Jun-17 08:30N 64°51' E 011°16'0 0.0
2018-Jun-17 08:00N 64°51' E 011°16'0 0.0
2018-Jun-17 07:30N 64°51' E 011°16'0 0.0
2018-Jun-17 06:58N 64°51' E 011°16'0 0.0
2018-Jun-17 06:28N 64°51' E 011°16'0 0.0
2018-Jun-17 05:58N 64°51' E 011°16'0 0.0
2018-Jun-17 05:30N 64°51' E 011°16'0 0.0
2018-Jun-17 04:58N 64°51' E 011°16'0 0.0
2018-Jun-17 04:28N 64°51' E 011°16'0 0.0
2018-Jun-17 03:58N 64°51' E 011°16'0 0.0
2018-Jun-17 03:28N 64°51' E 011°16'0 0.0
2018-Jun-17 02:59N 64°51' E 011°16'0 0.0
2018-Jun-17 02:29N 64°51' E 011°16'0 0.0
2018-Jun-17 01:59N 64°51' E 011°16'0 0.0
2018-Jun-17 01:29N 64°51' E 011°16'0 0.0
2018-Jun-17 00:57N 64°51' E 011°16'0 0.0
2018-Jun-17 00:26N 64°51' E 011°16'0 0.0
2018-Jun-16 23:59N 64°51' E 011°16'0 0.0
2018-Jun-16 23:29N 64°51' E 011°16'0 0.0
2018-Jun-16 23:00N 64°51' E 011°16'0 0.0
2018-Jun-16 22:29N 64°51' E 011°16'0 0.0
2018-Jun-16 21:59N 64°51' E 011°16'0 0.0
2018-Jun-16 21:28N 64°51' E 011°16'0 0.0
2018-Jun-16 21:00N 64°51' E 011°16'0 0.0
2018-Jun-16 20:29N 64°51' E 011°16'0 0.0
2018-Jun-16 20:00N 64°51' E 011°16'0 0.0
2018-Jun-16 19:28N 64°51' E 011°16'0 0.0
2018-Jun-16 19:00N 64°51' E 011°16'0 0.0
2018-Jun-16 18:30N 64°51' E 011°16'0 0.0
2018-Jun-16 17:58N 64°51' E 011°16'0 0.0
2018-Jun-16 17:28N 64°51' E 011°16'0 0.0
2018-Jun-16 16:56N 64°51' E 011°16'0 0.0
2018-Jun-16 16:29N 64°51' E 011°16'0 0.0
2018-Jun-16 15:57N 64°51' E 011°16'0 0.0
2018-Jun-16 15:30N 64°51' E 011°16'0 0.0
2018-Jun-16 14:58N 64°51' E 011°16'0 0.0
2018-Jun-16 14:26N 64°51' E 011°16'0 0.0
2018-Jun-16 13:59N 64°51' E 011°16'0 0.0
2018-Jun-16 13:29N 64°51' E 011°16'0 0.0
2018-Jun-16 12:58N 64°51' E 011°16'0 0.0
2018-Jun-16 12:28N 64°51' E 011°16'0 0.0
2018-Jun-16 12:00N 64°51' E 011°16'0 0.0
2018-Jun-16 11:30N 64°51' E 011°16'0 0.0
2018-Jun-16 11:00N 64°51' E 011°16'0 0.0
2018-Jun-16 10:30N 64°51' E 011°16'0 0.0
2018-Jun-16 09:55N 64°51' E 011°16'0 0.0
2018-Jun-16 09:28N 64°51' E 011°16'0 0.0
2018-Jun-16 08:58N 64°51' E 011°16'0 0.0
2018-Jun-16 08:30N 64°51' E 011°16'0 0.0
2018-Jun-16 08:00N 64°51' E 011°16'0 0.0
2018-Jun-16 07:29N 64°51' E 011°16'0 0.0
2018-Jun-16 06:59N 64°51' E 011°16'0 0.0
2018-Jun-16 06:29N 64°51' E 011°16'0 0.0
2018-Jun-16 05:59N 64°51' E 011°16'0 0.0
2018-Jun-16 05:29N 64°51' E 011°16'0 0.0
2018-Jun-16 04:59N 64°51' E 011°16'0 0.0
2018-Jun-16 04:30N 64°51' E 011°16'0 0.0
2018-Jun-16 03:59N 64°51' E 011°16'0 0.0
2018-Jun-16 03:28N 64°51' E 011°16'0 0.0
2018-Jun-16 02:58N 64°51' E 011°16'0 0.0
2018-Jun-16 02:29N 64°51' E 011°16'0 0.0
2018-Jun-16 01:59N 64°51' E 011°16'0 0.0
2018-Jun-16 01:29N 64°51' E 011°16'0 0.0
2018-Jun-16 00:59N 64°51' E 011°16'0 0.0
2018-Jun-16 00:28N 64°51' E 011°16'0 0.0
2018-Jun-15 23:57N 64°51' E 011°16'0 0.0
2018-Jun-15 23:28N 64°51' E 011°16'0 0.0
2018-Jun-15 22:58N 64°51' E 011°16'0 0.0
2018-Jun-15 22:29N 64°51' E 011°16'0 0.0
2018-Jun-15 21:59N 64°51' E 011°16'0 0.0
2018-Jun-15 21:30N 64°51' E 011°16'0 0.0
2018-Jun-15 21:00N 64°51' E 011°16'0 0.0
2018-Jun-15 20:28N 64°51' E 011°16'0 0.0
2018-Jun-15 19:58N 64°51' E 011°16'0 0.0
2018-Jun-15 19:29N 64°51' E 011°16'0 0.0
2018-Jun-15 18:59N 64°51' E 011°16'0 0.0
2018-Jun-15 18:28N 64°51' E 011°16'0 0.0
2018-Jun-15 17:58N 64°51' E 011°16'0 0.0
2018-Jun-15 17:30N 64°51' E 011°16'0 0.0
2018-Jun-15 16:59N 64°51' E 011°16'0 0.0
2018-Jun-15 16:26N 64°51' E 011°16'0 0.0
2018-Jun-15 15:54N 64°51' E 011°16'0 0.0
2018-Jun-15 15:30N 64°51' E 011°16'0 0.0
2018-Jun-15 14:58N 64°51' E 011°16'0 0.0
2018-Jun-15 14:28N 64°51' E 011°16'0 0.0
2018-Jun-15 13:58N 64°51' E 011°16'0 0.0
2018-Jun-15 13:28N 64°51' E 011°16'0 0.0
2018-Jun-15 12:59N 64°51' E 011°16'0 0.0
2018-Jun-15 12:29N 64°51' E 011°16'0 0.0
2018-Jun-15 11:59N 64°51' E 011°16'0 0.0
2018-Jun-15 11:30N 64°51' E 011°16'0 0.0
2018-Jun-15 10:58N 64°51' E 011°16'0 0.0
2018-Jun-15 10:29N 64°51' E 011°16'1 2.4
2018-Jun-15 10:00N 64°51' E 011°14'1 2.0
2018-Jun-15 09:27N 64°51' E 011°16'0 0.0
2018-Jun-15 09:00N 64°51' E 011°16'0 0.0
2018-Jun-15 08:30N 64°51' E 011°16'0 0.0
2018-Jun-15 08:00N 64°51' E 011°16'0 0.0
2018-Jun-15 07:30N 64°51' E 011°16'0 0.0
2018-Jun-15 07:00N 64°51' E 011°16'0 0.0
2018-Jun-15 06:25N 64°51' E 011°16'0 0.0
2018-Jun-15 06:00N 64°51' E 011°16'0 0.0
2018-Jun-15 05:30N 64°51' E 011°16'0 0.0
2018-Jun-15 05:00N 64°51' E 011°16'0 0.0
2018-Jun-15 04:30N 64°51' E 011°16'0 0.0
2018-Jun-15 04:00N 64°51' E 011°16'0 0.0
2018-Jun-15 03:28N 64°51' E 011°16'0 0.0
2018-Jun-15 02:58N 64°51' E 011°16'0 0.0
2018-Jun-15 02:30N 64°51' E 011°16'0 0.0
2018-Jun-15 01:53N 64°51' E 011°16'0 0.0
2018-Jun-15 01:29N 64°51' E 011°16'0 0.0
2018-Jun-15 01:00N 64°51' E 011°16'0 0.0
2018-Jun-15 00:30N 64°51' E 011°16'0 0.0
2018-Jun-14 23:58N 64°51' E 011°16'0 0.0
2018-Jun-14 23:28N 64°51' E 011°16'0 0.0
2018-Jun-14 22:59N 64°51' E 011°16'0 0.0
2018-Jun-14 22:30N 64°51' E 011°16'0 0.0
2018-Jun-14 22:00N 64°51' E 011°16'0 0.0
2018-Jun-14 21:29N 64°51' E 011°16'0 0.0
2018-Jun-14 20:59N 64°51' E 011°16'0 0.0
2018-Jun-14 20:29N 64°51' E 011°16'0 0.0
2018-Jun-14 19:59N 64°51' E 011°16'0 0.0
2018-Jun-14 19:30N 64°51' E 011°16'0 0.0
2018-Jun-14 18:57N 64°51' E 011°16'0 0.0
2018-Jun-14 18:29N 64°51' E 011°16'0 0.0
2018-Jun-14 17:53N 64°51' E 011°16'0 0.0
2018-Jun-14 17:29N 64°51' E 011°16'0 0.0
2018-Jun-14 17:00N 64°51' E 011°16'0 0.0
2018-Jun-14 16:30N 64°51' E 011°16'0 0.0
2018-Jun-14 16:00N 64°51' E 011°16'0 0.0
2018-Jun-14 15:29N 64°51' E 011°16'0 0.0
2018-Jun-14 14:57N 64°51' E 011°16'0 0.0
2018-Jun-14 14:30N 64°51' E 011°16'0 0.0
2018-Jun-14 13:59N 64°51' E 011°16'0 0.0
2018-Jun-14 13:29N 64°51' E 011°16'0 0.0
2018-Jun-14 12:58N 64°51' E 011°16'0 0.0
2018-Jun-14 12:30N 64°51' E 011°16'0 0.0
2018-Jun-14 11:58N 64°51' E 011°16'0 0.0
2018-Jun-14 11:30N 64°51' E 011°16'0 0.0
2018-Jun-14 11:00N 64°51' E 011°16'0 0.0
2018-Jun-14 10:30N 64°51' E 011°16'0 0.0
2018-Jun-14 10:00N 64°51' E 011°16'0 0.0
2018-Jun-14 09:30N 64°51' E 011°16'712.8
2018-Jun-14 08:56N 64°43' E 011°16'815.5
2018-Jun-14 08:26N 64°45' E 011°33'2 0.6
2018-Jun-14 05:15N 64°47' E 011°36'625.6
2018-Jun-14 05:00N 64°44' E 011°23'613.0
2018-Jun-14 04:30N 64°49' E 011°13'2 4.2
2018-Jun-14 04:00N 64°51' E 011°16'0 0.0
2018-Jun-14 03:30N 64°51' E 011°16'0 0.0
2018-Jun-14 03:00N 64°51' E 011°16'0 0.0
2018-Jun-14 02:29N 64°51' E 011°16'0 0.0
2018-Jun-14 01:59N 64°51' E 011°16'0 0.0
2018-Jun-14 01:29N 64°51' E 011°16'0 0.0
2018-Jun-14 00:59N 64°51' E 011°16'0 0.0
2018-Jun-14 00:28N 64°51' E 011°16'0 0.0
2018-Jun-13 23:58N 64°51' E 011°16'0 0.0
2018-Jun-13 23:28N 64°51' E 011°16'0 0.0
2018-Jun-13 22:59N 64°51' E 011°16'0 0.0
2018-Jun-13 22:30N 64°51' E 011°16'0 0.0
2018-Jun-13 21:58N 64°51' E 011°16'0 0.0
2018-Jun-13 21:28N 64°51' E 011°16'0 0.0
2018-Jun-13 20:58N 64°51' E 011°16'0 0.0
2018-Jun-13 20:28N 64°51' E 011°16'0 0.0
2018-Jun-13 19:54N 64°51' E 011°16'0 0.0
2018-Jun-13 19:23N 64°51' E 011°16'0 0.0
2018-Jun-13 18:58N 64°51' E 011°16'0 0.0
2018-Jun-13 18:28N 64°51' E 011°16'0 0.0
2018-Jun-13 17:59N 64°51' E 011°16'0 0.0
2018-Jun-13 17:25N 64°51' E 011°16'0 0.0
2018-Jun-13 17:00N 64°51' E 011°16'0 0.0
2018-Jun-13 16:28N 64°51' E 011°16'0 0.0
2018-Jun-13 16:00N 64°51' E 011°16'0 0.0
2018-Jun-13 15:30N 64°51' E 011°16'0 0.0
2018-Jun-13 14:58N 64°51' E 011°16'0 0.0
2018-Jun-13 14:26N 64°51' E 011°16'0 0.0
2018-Jun-13 13:59N 64°51' E 011°16'0 0.0
2018-Jun-13 13:29N 64°51' E 011°16'0 0.0
2018-Jun-13 13:00N 64°51' E 011°16'4 7.3
2018-Jun-13 12:31N 64°49' E 011°08'6 1.0
2018-Jun-13 06:10N 64°49' E 010°54'424.9
2018-Jun-13 06:00N 64°49' E 011°03'611.5
2018-Jun-13 05:29N 64°51' E 011°16'0 0.0
2018-Jun-13 04:59N 64°51' E 011°16'0 0.0
2018-Jun-13 04:30N 64°51' E 011°16'0 0.0
2018-Jun-13 03:59N 64°51' E 011°16'0 0.0
2018-Jun-13 03:29N 64°51' E 011°16'0 0.0
2018-Jun-13 03:00N 64°51' E 011°16'0 0.0
2018-Jun-13 02:30N 64°51' E 011°16'0 0.0
2018-Jun-13 02:00N 64°51' E 011°16'0 0.0
2018-Jun-13 01:30N 64°51' E 011°16'0 0.0
2018-Jun-13 01:00N 64°51' E 011°16'0 0.0
2018-Jun-13 00:30N 64°51' E 011°16'0 0.0
2018-Jun-12 23:59N 64°51' E 011°16'0 0.0
2018-Jun-12 23:30N 64°51' E 011°16'0 0.0
2018-Jun-12 23:00N 64°51' E 011°16'0 0.0
2018-Jun-12 22:30N 64°51' E 011°16'0 0.0
2018-Jun-12 22:00N 64°51' E 011°16'0 0.0
2018-Jun-12 21:28N 64°51' E 011°16'0 0.0
2018-Jun-12 20:58N 64°51' E 011°16'0 0.0
2018-Jun-12 20:28N 64°51' E 011°16'0 0.0
2018-Jun-12 20:00N 64°51' E 011°16'0 0.0
2018-Jun-12 19:30N 64°51' E 011°16'0 0.0
2018-Jun-12 18:57N 64°51' E 011°16'0 0.0
2018-Jun-12 18:28N 64°51' E 011°16'0 0.0
2018-Jun-12 17:58N 64°51' E 011°16'0 0.0
2018-Jun-12 17:28N 64°51' E 011°16'0 0.0
2018-Jun-12 17:00N 64°51' E 011°16'0 0.0
2018-Jun-12 16:30N 64°51' E 011°16'0 0.0
2018-Jun-12 15:59N 64°51' E 011°16'0 0.0
2018-Jun-12 15:30N 64°51' E 011°16'0 0.0
2018-Jun-12 14:58N 64°51' E 011°16'0 0.0
2018-Jun-12 14:26N 64°51' E 011°16'0 0.0
2018-Jun-12 13:58N 64°51' E 011°16'0 0.0
2018-Jun-12 13:28N 64°51' E 011°16'0 0.0
2018-Jun-12 12:56N 64°51' E 011°16'0 0.0
2018-Jun-12 12:28N 64°51' E 011°16'1 2.5
2018-Jun-12 12:00N 64°52' E 011°14'917.7
2018-Jun-12 11:30N 64°57' E 011°29'10 7.1
2018-Jun-12 10:08N 65°05' E 011°44'0 0.1
2018-Jun-12 09:41N 65°05' E 011°44'0 0.0
2018-Jun-12 09:29N 65°05' E 011°44'0 0.0
2018-Jun-12 08:20N 65°05' E 011°44'0 0.1
2018-Jun-12 07:39N 65°05' E 011°43'0 0.0
2018-Jun-12 07:21N 65°05' E 011°43'0 0.0
2018-Jun-12 06:51N 65°05' E 011°43'0 0.0
2018-Jun-12 06:13N 65°05' E 011°43'420.1
2018-Jun-12 06:00N 65°01' E 011°41'1325.5
2018-Jun-12 05:30N 64°53' E 011°18'2 3.9
2018-Jun-12 05:00N 64°51' E 011°16'0 0.0
2018-Jun-12 04:27N 64°51' E 011°16'0 0.0
2018-Jun-12 03:58N 64°51' E 011°16'0 0.0
2018-Jun-12 03:28N 64°51' E 011°16'0 0.0
2018-Jun-12 02:58N 64°51' E 011°16'0 0.0
2018-Jun-12 02:28N 64°51' E 011°16'0 0.0
2018-Jun-12 01:57N 64°51' E 011°16'0 0.0
2018-Jun-12 01:30N 64°51' E 011°16'0 0.0
2018-Jun-12 00:58N 64°51' E 011°16'0 0.0
2018-Jun-12 00:29N 64°51' E 011°16'0 0.0
2018-Jun-11 23:59N 64°51' E 011°16'0 0.0
2018-Jun-11 23:28N 64°51' E 011°16'0 0.0
2018-Jun-11 23:00N 64°51' E 011°16'0 0.0
2018-Jun-11 22:28N 64°51' E 011°16'0 0.0
2018-Jun-11 21:59N 64°51' E 011°16'0 0.0
2018-Jun-11 21:23N 64°51' E 011°16'0 0.0
2018-Jun-11 20:59N 64°51' E 011°16'0 0.0
2018-Jun-11 20:30N 64°51' E 011°16'0 0.0
2018-Jun-11 20:00N 64°51' E 011°16'0 0.0
2018-Jun-11 19:29N 64°51' E 011°16'0 0.0
2018-Jun-11 18:59N 64°51' E 011°16'0 0.0
2018-Jun-11 18:29N 64°51' E 011°16'0 0.0
2018-Jun-11 17:59N 64°51' E 011°16'0 0.0
2018-Jun-11 17:29N 64°51' E 011°16'0 0.0
2018-Jun-11 16:58N 64°51' E 011°16'0 0.0
2018-Jun-11 16:30N 64°51' E 011°16'0 0.0
2018-Jun-11 16:00N 64°51' E 011°16'815.4
2018-Jun-11 15:31N 64°57' E 011°28'1018.3
2018-Jun-11 14:56N 65°05' E 011°43'0 0.0
2018-Jun-11 14:29N 65°05' E 011°43'0 0.0
2018-Jun-11 13:56N 65°05' E 011°43'0 0.1
2018-Jun-11 13:24N 65°05' E 011°43'0 0.0
2018-Jun-11 13:00N 65°05' E 011°43'0 0.1
2018-Jun-11 12:12N 65°05' E 011°43'0 0.0
2018-Jun-11 11:42N 65°05' E 011°43'0 0.1
2018-Jun-11 11:22N 65°05' E 011°43'0 0.0
2018-Jun-11 10:57N 65°05' E 011°43'0 0.0
2018-Jun-11 10:30N 65°05' E 011°43'0 0.0
2018-Jun-11 10:00N 65°05' E 011°43'0 0.1
2018-Jun-11 09:13N 65°05' E 011°44'0 0.0
2018-Jun-11 08:55N 65°05' E 011°44'0 0.0
2018-Jun-11 08:25N 65°05' E 011°44'0 0.1
2018-Jun-11 07:58N 65°05' E 011°44'0 0.0
2018-Jun-11 06:51N 65°05' E 011°44'721.1
2018-Jun-11 06:31N 64°58' E 011°35'1122.5
2018-Jun-11 06:01N 64°51' E 011°14'1 1.8
2018-Jun-11 05:26N 64°51' E 011°16'0 0.0
2018-Jun-11 04:59N 64°51' E 011°16'0 0.0
2018-Jun-11 04:28N 64°51' E 011°16'0 0.0
2018-Jun-11 04:00N 64°51' E 011°16'0 0.0
2018-Jun-11 03:29N 64°51' E 011°16'0 0.0
2018-Jun-11 03:00N 64°51' E 011°16'0 0.0
2018-Jun-11 02:29N 64°51' E 011°16'0 0.0
2018-Jun-11 01:58N 64°51' E 011°16'0 0.0
2018-Jun-11 01:28N 64°51' E 011°16'0 0.0
2018-Jun-11 00:58N 64°51' E 011°16'0 0.0
2018-Jun-11 00:28N 64°51' E 011°16'0 0.0
2018-Jun-10 23:55N 64°51' E 011°16'0 0.0
2018-Jun-10 23:28N 64°51' E 011°16'0 0.0
2018-Jun-10 23:00N 64°51' E 011°16'0 0.0
2018-Jun-10 22:29N 64°51' E 011°16'0 0.0
2018-Jun-10 22:00N 64°51' E 011°16'0 0.0
2018-Jun-10 21:29N 64°51' E 011°16'0 0.0
2018-Jun-10 20:59N 64°51' E 011°16'0 0.0
2018-Jun-10 20:28N 64°51' E 011°16'0 0.0
2018-Jun-10 19:59N 64°51' E 011°16'0 0.0
2018-Jun-10 19:28N 64°51' E 011°16'0 0.0
2018-Jun-10 18:58N 64°51' E 011°16'0 0.0
2018-Jun-10 18:26N 64°51' E 011°16'0 0.0
2018-Jun-10 17:59N 64°51' E 011°16'0 0.0
2018-Jun-10 17:29N 64°51' E 011°16'0 0.0
2018-Jun-10 17:00N 64°51' E 011°16'0 0.0
2018-Jun-10 16:30N 64°51' E 011°16'0 0.0
2018-Jun-10 15:58N 64°51' E 011°16'0 0.0
2018-Jun-10 15:28N 64°51' E 011°16'0 0.0
2018-Jun-10 14:58N 64°51' E 011°16'0 0.0
2018-Jun-10 14:30N 64°51' E 011°16'0 0.0
2018-Jun-10 13:30N 64°51' E 011°16'0 0.0
2018-Jun-10 12:58N 64°51' E 011°16'0 0.0
2018-Jun-10 12:28N 64°51' E 011°16'0 0.0
2018-Jun-10 11:59N 64°51' E 011°16'0 0.0
2018-Jun-10 11:28N 64°51' E 011°16'0 0.0
2018-Jun-10 10:58N 64°51' E 011°16'0 0.0
2018-Jun-10 10:27N 64°51' E 011°16'0 0.0
2018-Jun-10 10:00N 64°51' E 011°16'0 0.0
2018-Jun-10 09:30N 64°51' E 011°16'0 0.0
2018-Jun-10 08:58N 64°51' E 011°16'0 0.0
2018-Jun-10 08:30N 64°51' E 011°16'0 0.0
2018-Jun-10 07:59N 64°51' E 011°16'0 0.0
2018-Jun-10 07:30N 64°51' E 011°16'0 0.0
2018-Jun-10 07:00N 64°51' E 011°16'0 0.0
2018-Jun-10 06:29N 64°51' E 011°16'0 0.0
2018-Jun-10 05:59N 64°51' E 011°16'0 0.0
2018-Jun-10 05:29N 64°51' E 011°16'0 0.0
2018-Jun-10 04:54N 64°51' E 011°16'0 0.0
2018-Jun-10 04:30N 64°51' E 011°16'0 0.0
2018-Jun-10 04:00N 64°51' E 011°16'0 0.0
2018-Jun-10 03:30N 64°51' E 011°16'0 0.0
2018-Jun-10 03:00N 64°51' E 011°16'0 0.0
2018-Jun-10 02:29N 64°51' E 011°16'0 0.0
2018-Jun-10 01:59N 64°51' E 011°16'0 0.0
2018-Jun-10 01:30N 64°51' E 011°16'0 0.0
2018-Jun-10 00:57N 64°51' E 011°16'0 0.0
2018-Jun-10 00:29N 64°51' E 011°16'0 0.0
2018-Jun-09 23:58N 64°51' E 011°16'0 0.0
2018-Jun-09 23:28N 64°51' E 011°16'0 0.0
2018-Jun-09 22:59N 64°51' E 011°16'0 0.0
2018-Jun-09 22:30N 64°51' E 011°16'0 0.0
2018-Jun-09 22:00N 64°51' E 011°16'0 0.0
2018-Jun-09 21:30N 64°51' E 011°16'0 0.0
2018-Jun-09 21:00N 64°51' E 011°16'0 0.0
2018-Jun-09 20:30N 64°51' E 011°16'0 0.0
2018-Jun-09 20:00N 64°51' E 011°16'0 0.0
2018-Jun-09 19:30N 64°51' E 011°16'0 0.0
2018-Jun-09 18:59N 64°51' E 011°16'0 0.0
2018-Jun-09 18:28N 64°51' E 011°16'0 0.0
2018-Jun-09 17:58N 64°51' E 011°16'0 0.0
2018-Jun-09 17:29N 64°51' E 011°16'0 0.0
2018-Jun-09 16:59N 64°51' E 011°16'0 0.0
2018-Jun-09 16:27N 64°51' E 011°16'0 0.0
2018-Jun-09 16:00N 64°51' E 011°16'0 0.0
2018-Jun-09 14:58N 64°51' E 011°16'0 0.0
2018-Jun-09 14:28N 64°51' E 011°16'0 0.0
2018-Jun-09 13:58N 64°51' E 011°16'0 0.0
2018-Jun-09 13:28N 64°51' E 011°16'0 0.0
2018-Jun-09 13:00N 64°51' E 011°16'0 0.0
2018-Jun-09 12:30N 64°51' E 011°16'0 0.0
2018-Jun-09 11:58N 64°51' E 011°16'0 0.0
2018-Jun-09 11:29N 64°51' E 011°16'0 0.0
2018-Jun-09 10:58N 64°51' E 011°16'0 0.0
2018-Jun-09 10:29N 64°51' E 011°16'0 0.0
2018-Jun-09 09:54N 64°51' E 011°16'0 0.0
2018-Jun-09 09:20N 64°51' E 011°16'0 0.0
2018-Jun-09 08:58N 64°51' E 011°16'0 0.0
2018-Jun-09 08:28N 64°51' E 011°16'0 0.0
2018-Jun-09 07:58N 64°51' E 011°16'0 0.0
2018-Jun-09 07:28N 64°51' E 011°16'0 0.0
2018-Jun-09 06:58N 64°51' E 011°16'0 0.0
2018-Jun-09 06:28N 64°51' E 011°16'0 0.0
2018-Jun-09 05:59N 64°51' E 011°16'0 0.0
2018-Jun-09 05:28N 64°51' E 011°16'0 0.0
2018-Jun-09 04:59N 64°51' E 011°16'0 0.0
2018-Jun-09 04:30N 64°51' E 011°16'0 0.0
2018-Jun-09 04:00N 64°51' E 011°16'0 0.0
2018-Jun-09 03:29N 64°51' E 011°16'0 0.0
2018-Jun-09 03:00N 64°51' E 011°16'0 0.0
2018-Jun-09 02:30N 64°51' E 011°16'0 0.0
2018-Jun-09 02:00N 64°51' E 011°16'0 0.0
2018-Jun-09 01:30N 64°51' E 011°16'0 0.0
2018-Jun-09 01:00N 64°51' E 011°16'0 0.0
2018-Jun-09 00:28N 64°51' E 011°16'0 0.0
2018-Jun-09 00:00N 64°51' E 011°16'0 0.0
2018-Jun-08 23:29N 64°51' E 011°16'0 0.0
2018-Jun-08 22:58N 64°51' E 011°16'0 0.0
2018-Jun-08 22:29N 64°51' E 011°16'0 0.0
2018-Jun-08 21:59N 64°51' E 011°16'0 0.0
2018-Jun-08 21:29N 64°51' E 011°16'0 0.0
2018-Jun-08 20:53N 64°51' E 011°16'0 0.0
2018-Jun-08 20:24N 64°51' E 011°16'0 0.0
2018-Jun-08 20:00N 64°51' E 011°16'  
Track history (hours):
 
Tides and Currents Weather Stations Pressure Air Temp Water Temp Dewpoint Dewpoint Depression Visibility Wind Speed Wind Dir Waves Ship Positions

Naeroeysund

Last reported at 2018-Jun-18 19:30 UTC. Time now 2018-Jun-18 19:28 UTC.
Position N 64°51' E 011°16'.

Length 15 m.

Type: Ship. MMSI: 257029950.

Date/timePositionNaut miles runAvg speedWind from/ knotsBaromVisibWave heightAir tempDewpointWater temp
2018-Jun-18 19:30N 64°51' E 011°16'0 0.0
2018-Jun-18 19:00N 64°51' E 011°16'0 0.0
2018-Jun-18 18:27N 64°51' E 011°16'0 0.0
2018-Jun-18 18:00N 64°51' E 011°16'0 0.0
2018-Jun-18 17:29N 64°51' E 011°16'0 0.0
2018-Jun-18 17:00N 64°51' E 011°16'0 0.0
2018-Jun-18 16:28N 64°51' E 011°16'0 0.0
2018-Jun-18 15:58N 64°51' E 011°16'0 0.0
2018-Jun-18 15:29N 64°51' E 011°16'0 0.0
2018-Jun-18 14:58N 64°51' E 011°16'0 0.0
2018-Jun-18 14:28N 64°51' E 011°16'0 0.0
2018-Jun-18 13:59N 64°51' E 011°16'0 0.0
2018-Jun-18 13:29N 64°51' E 011°16'0 0.0
2018-Jun-18 13:00N 64°51' E 011°16'0 0.0
2018-Jun-18 12:29N 64°51' E 011°16'0 1.0
2018-Jun-18 12:00N 64°50' E 011°16'713.8
2018-Jun-18 11:30N 64°44' E 011°20'610.3
2018-Jun-18 10:57N 64°45' E 011°33'0 0.0
2018-Jun-18 10:30N 64°45' E 011°33'0 0.0
2018-Jun-18 09:51N 64°45' E 011°33'0 0.1
2018-Jun-18 09:05N 64°45' E 011°33'0 0.0
2018-Jun-18 08:41N 64°45' E 011°33'0 0.6
2018-Jun-18 08:31N 64°45' E 011°32'4 7.1
2018-Jun-18 08:01N 64°43' E 011°27'1 1.9
2018-Jun-18 07:30N 64°43' E 011°29'0 0.3
2018-Jun-18 06:58N 64°43' E 011°28'1 1.3
2018-Jun-18 06:28N 64°43' E 011°27'4 7.8
2018-Jun-18 06:00N 64°43' E 011°19'815.3
2018-Jun-18 05:30N 64°50' E 011°15'1 1.5
2018-Jun-18 05:00N 64°51' E 011°16'0 0.0
2018-Jun-18 04:30N 64°51' E 011°16'0 0.0
2018-Jun-18 04:00N 64°51' E 011°16'0 0.0
2018-Jun-18 03:28N 64°51' E 011°16'0 0.0
2018-Jun-18 02:59N 64°51' E 011°16'0 0.0
2018-Jun-18 02:29N 64°51' E 011°16'0 0.0
2018-Jun-18 01:59N 64°51' E 011°16'0 0.0
2018-Jun-18 01:29N 64°51' E 011°16'0 0.0
2018-Jun-18 00:59N 64°51' E 011°16'0 0.0
2018-Jun-18 00:29N 64°51' E 011°16'0 0.0
2018-Jun-18 00:00N 64°51' E 011°16'0 0.0
2018-Jun-17 23:29N 64°51' E 011°16'0 0.0
2018-Jun-17 22:58N 64°51' E 011°16'0 0.0
2018-Jun-17 22:29N 64°51' E 011°16'0 0.0
2018-Jun-17 22:00N 64°51' E 011°16'0 0.0
2018-Jun-17 21:28N 64°51' E 011°16'0 0.0
2018-Jun-17 20:59N 64°51' E 011°16'0 0.0
2018-Jun-17 20:29N 64°51' E 011°16'0 0.0
2018-Jun-17 20:00N 64°51' E 011°16'0 0.0
2018-Jun-17 19:30N 64°51' E 011°16'0 0.0
2018-Jun-17 19:00N 64°51' E 011°16'0 0.0
2018-Jun-17 18:28N 64°51' E 011°16'0 0.0
2018-Jun-17 17:58N 64°51' E 011°16'0 0.0
2018-Jun-17 17:29N 64°51' E 011°16'0 0.0
2018-Jun-17 16:58N 64°51' E 011°16'0 0.0
2018-Jun-17 16:28N 64°51' E 011°16'0 0.0
2018-Jun-17 15:59N 64°51' E 011°16'0 0.0
2018-Jun-17 15:28N 64°51' E 011°16'0 0.0
2018-Jun-17 14:59N 64°51' E 011°16'0 0.0
2018-Jun-17 14:29N 64°51' E 011°16'0 0.0
2018-Jun-17 14:00N 64°51' E 011°16'0 0.0
2018-Jun-17 13:30N 64°51' E 011°16'0 0.0
2018-Jun-17 12:58N 64°51' E 011°16'0 0.0
2018-Jun-17 12:28N 64°51' E 011°16'0 0.0
2018-Jun-17 11:53N 64°51' E 011°16'0 0.0
2018-Jun-17 11:29N 64°51' E 011°16'0 0.0
2018-Jun-17 10:59N 64°51' E 011°16'0 0.0
2018-Jun-17 10:29N 64°51' E 011°16'0 0.0
2018-Jun-17 10:00N 64°51' E 011°16'0 0.0
2018-Jun-17 09:29N 64°51' E 011°16'0 0.0
2018-Jun-17 08:59N 64°51' E 011°16'0 0.0
2018-Jun-17 08:30N 64°51' E 011°16'0 0.0
2018-Jun-17 08:00N 64°51' E 011°16'0 0.0
2018-Jun-17 07:30N 64°51' E 011°16'0 0.0
2018-Jun-17 06:58N 64°51' E 011°16'0 0.0
2018-Jun-17 06:28N 64°51' E 011°16'0 0.0
2018-Jun-17 05:58N 64°51' E 011°16'0 0.0
2018-Jun-17 05:30N 64°51' E 011°16'0 0.0
2018-Jun-17 04:58N 64°51' E 011°16'0 0.0
2018-Jun-17 04:28N 64°51' E 011°16'0 0.0
2018-Jun-17 03:58N 64°51' E 011°16'0 0.0
2018-Jun-17 03:28N 64°51' E 011°16'0 0.0
2018-Jun-17 02:59N 64°51' E 011°16'0 0.0
2018-Jun-17 02:29N 64°51' E 011°16'0 0.0
2018-Jun-17 01:59N 64°51' E 011°16'0 0.0
2018-Jun-17 01:29N 64°51' E 011°16'0 0.0
2018-Jun-17 00:57N 64°51' E 011°16'0 0.0
2018-Jun-17 00:26N 64°51' E 011°16'0 0.0
2018-Jun-16 23:59N 64°51' E 011°16'0 0.0
2018-Jun-16 23:29N 64°51' E 011°16'0 0.0
2018-Jun-16 23:00N 64°51' E 011°16'0 0.0
2018-Jun-16 22:29N 64°51' E 011°16'0 0.0
2018-Jun-16 21:59N 64°51' E 011°16'0 0.0
2018-Jun-16 21:28N 64°51' E 011°16'0 0.0
2018-Jun-16 21:00N 64°51' E 011°16'0 0.0
2018-Jun-16 20:29N 64°51' E 011°16'0 0.0
2018-Jun-16 20:00N 64°51' E 011°16'0 0.0
2018-Jun-16 19:28N 64°51' E 011°16'0 0.0
2018-Jun-16 19:00N 64°51' E 011°16'0 0.0
2018-Jun-16 18:30N 64°51' E 011°16'0 0.0
2018-Jun-16 17:58N 64°51' E 011°16'0 0.0
2018-Jun-16 17:28N 64°51' E 011°16'0 0.0
2018-Jun-16 16:56N 64°51' E 011°16'0 0.0
2018-Jun-16 16:29N 64°51' E 011°16'0 0.0
2018-Jun-16 15:57N 64°51' E 011°16'0 0.0
2018-Jun-16 15:30N 64°51' E 011°16'0 0.0
2018-Jun-16 14:58N 64°51' E 011°16'0 0.0
2018-Jun-16 14:26N 64°51' E 011°16'0 0.0
2018-Jun-16 13:59N 64°51' E 011°16'0 0.0
2018-Jun-16 13:29N 64°51' E 011°16'0 0.0
2018-Jun-16 12:58N 64°51' E 011°16'0 0.0
2018-Jun-16 12:28N 64°51' E 011°16'0 0.0
2018-Jun-16 12:00N 64°51' E 011°16'0 0.0
2018-Jun-16 11:30N 64°51' E 011°16'0 0.0
2018-Jun-16 11:00N 64°51' E 011°16'0 0.0
2018-Jun-16 10:30N 64°51' E 011°16'0 0.0
2018-Jun-16 09:55N 64°51' E 011°16'0 0.0
2018-Jun-16 09:28N 64°51' E 011°16'0 0.0
2018-Jun-16 08:58N 64°51' E 011°16'0 0.0
2018-Jun-16 08:30N 64°51' E 011°16'0 0.0
2018-Jun-16 08:00N 64°51' E 011°16'0 0.0
2018-Jun-16 07:29N 64°51' E 011°16'0 0.0
2018-Jun-16 06:59N 64°51' E 011°16'0 0.0
2018-Jun-16 06:29N 64°51' E 011°16'0 0.0
2018-Jun-16 05:59N 64°51' E 011°16'0 0.0
2018-Jun-16 05:29N 64°51' E 011°16'0 0.0
2018-Jun-16 04:59N 64°51' E 011°16'0 0.0
2018-Jun-16 04:30N 64°51' E 011°16'0 0.0
2018-Jun-16 03:59N 64°51' E 011°16'0 0.0
2018-Jun-16 03:28N 64°51' E 011°16'0 0.0
2018-Jun-16 02:58N 64°51' E 011°16'0 0.0
2018-Jun-16 02:29N 64°51' E 011°16'0 0.0
2018-Jun-16 01:59N 64°51' E 011°16'0 0.0
2018-Jun-16 01:29N 64°51' E 011°16'0 0.0
2018-Jun-16 00:59N 64°51' E 011°16'0 0.0
2018-Jun-16 00:28N 64°51' E 011°16'0 0.0
2018-Jun-15 23:57N 64°51' E 011°16'0 0.0
2018-Jun-15 23:28N 64°51' E 011°16'0 0.0
2018-Jun-15 22:58N 64°51' E 011°16'0 0.0
2018-Jun-15 22:29N 64°51' E 011°16'0 0.0
2018-Jun-15 21:59N 64°51' E 011°16'0 0.0
2018-Jun-15 21:30N 64°51' E 011°16'0 0.0
2018-Jun-15 21:00N 64°51' E 011°16'0 0.0
2018-Jun-15 20:28N 64°51' E 011°16'0 0.0
2018-Jun-15 19:58N 64°51' E 011°16'0 0.0
2018-Jun-15 19:29N 64°51' E 011°16'0 0.0
2018-Jun-15 18:59N 64°51' E 011°16'0 0.0
2018-Jun-15 18:28N 64°51' E 011°16'0 0.0
2018-Jun-15 17:58N 64°51' E 011°16'0 0.0
2018-Jun-15 17:30N 64°51' E 011°16'0 0.0
2018-Jun-15 16:59N 64°51' E 011°16'0 0.0
2018-Jun-15 16:26N 64°51' E 011°16'0 0.0
2018-Jun-15 15:54N 64°51' E 011°16'0 0.0
2018-Jun-15 15:30N 64°51' E 011°16'0 0.0
2018-Jun-15 14:58N 64°51' E 011°16'0 0.0
2018-Jun-15 14:28N 64°51' E 011°16'0 0.0
2018-Jun-15 13:58N 64°51' E 011°16'0 0.0
2018-Jun-15 13:28N 64°51' E 011°16'0 0.0
2018-Jun-15 12:59N 64°51' E 011°16'0 0.0
2018-Jun-15 12:29N 64°51' E 011°16'0 0.0
2018-Jun-15 11:59N 64°51' E 011°16'0 0.0
2018-Jun-15 11:30N 64°51' E 011°16'0 0.0
2018-Jun-15 10:58N 64°51' E 011°16'0 0.0
2018-Jun-15 10:29N 64°51' E 011°16'1 2.4
2018-Jun-15 10:00N 64°51' E 011°14'1 2.0
2018-Jun-15 09:27N 64°51' E 011°16'0 0.0
2018-Jun-15 09:00N 64°51' E 011°16'0 0.0
2018-Jun-15 08:30N 64°51' E 011°16'0 0.0
2018-Jun-15 08:00N 64°51' E 011°16'0 0.0
2018-Jun-15 07:30N 64°51' E 011°16'0 0.0
2018-Jun-15 07:00N 64°51' E 011°16'0 0.0
2018-Jun-15 06:25N 64°51' E 011°16'0 0.0
2018-Jun-15 06:00N 64°51' E 011°16'0 0.0
2018-Jun-15 05:30N 64°51' E 011°16'0 0.0
2018-Jun-15 05:00N 64°51' E 011°16'0 0.0
2018-Jun-15 04:30N 64°51' E 011°16'0 0.0
2018-Jun-15 04:00N 64°51' E 011°16'0 0.0
2018-Jun-15 03:28N 64°51' E 011°16'0 0.0
2018-Jun-15 02:58N 64°51' E 011°16'0 0.0
2018-Jun-15 02:30N 64°51' E 011°16'0 0.0
2018-Jun-15 01:53N 64°51' E 011°16'0 0.0
2018-Jun-15 01:29N 64°51' E 011°16'0 0.0
2018-Jun-15 01:00N 64°51' E 011°16'0 0.0
2018-Jun-15 00:30N 64°51' E 011°16'0 0.0
2018-Jun-14 23:58N 64°51' E 011°16'0 0.0
2018-Jun-14 23:28N 64°51' E 011°16'0 0.0
2018-Jun-14 22:59N 64°51' E 011°16'0 0.0
2018-Jun-14 22:30N 64°51' E 011°16'0 0.0
2018-Jun-14 22:00N 64°51' E 011°16'0 0.0
2018-Jun-14 21:29N 64°51' E 011°16'0 0.0
2018-Jun-14 20:59N 64°51' E 011°16'0 0.0
2018-Jun-14 20:29N 64°51' E 011°16'0 0.0
2018-Jun-14 19:59N 64°51' E 011°16'0 0.0
2018-Jun-14 19:30N 64°51' E 011°16'0 0.0
2018-Jun-14 18:57N 64°51' E 011°16'0 0.0
2018-Jun-14 18:29N 64°51' E 011°16'0 0.0
2018-Jun-14 17:53N 64°51' E 011°16'0 0.0
2018-Jun-14 17:29N 64°51' E 011°16'0 0.0
2018-Jun-14 17:00N 64°51' E 011°16'0 0.0
2018-Jun-14 16:30N 64°51' E 011°16'0 0.0
2018-Jun-14 16:00N 64°51' E 011°16'0 0.0
2018-Jun-14 15:29N 64°51' E 011°16'0 0.0
2018-Jun-14 14:57N 64°51' E 011°16'0 0.0
2018-Jun-14 14:30N 64°51' E 011°16'0 0.0
2018-Jun-14 13:59N 64°51' E 011°16'0 0.0
2018-Jun-14 13:29N 64°51' E 011°16'0 0.0
2018-Jun-14 12:58N 64°51' E 011°16'0 0.0
2018-Jun-14 12:30N 64°51' E 011°16'0 0.0
2018-Jun-14 11:58N 64°51' E 011°16'0 0.0
2018-Jun-14 11:30N 64°51' E 011°16'0 0.0
2018-Jun-14 11:00N 64°51' E 011°16'0 0.0
2018-Jun-14 10:30N 64°51' E 011°16'0 0.0
2018-Jun-14 10:00N 64°51' E 011°16'0 0.0
2018-Jun-14 09:30N 64°51' E 011°16'712.8
2018-Jun-14 08:56N 64°43' E 011°16'815.5
2018-Jun-14 08:26N 64°45' E 011°33'2 0.6
2018-Jun-14 05:15N 64°47' E 011°36'625.6
2018-Jun-14 05:00N 64°44' E 011°23'613.0
2018-Jun-14 04:30N 64°49' E 011°13'2 4.2
2018-Jun-14 04:00N 64°51' E 011°16'0 0.0
2018-Jun-14 03:30N 64°51' E 011°16'0 0.0
2018-Jun-14 03:00N 64°51' E 011°16'0 0.0
2018-Jun-14 02:29N 64°51' E 011°16'0 0.0
2018-Jun-14 01:59N 64°51' E 011°16'0 0.0
2018-Jun-14 01:29N 64°51' E 011°16'0 0.0
2018-Jun-14 00:59N 64°51' E 011°16'0 0.0
2018-Jun-14 00:28N 64°51' E 011°16'0 0.0
2018-Jun-13 23:58N 64°51' E 011°16'0 0.0
2018-Jun-13 23:28N 64°51' E 011°16'0 0.0
2018-Jun-13 22:59N 64°51' E 011°16'0 0.0
2018-Jun-13 22:30N 64°51' E 011°16'0 0.0
2018-Jun-13 21:58N 64°51' E 011°16'0 0.0
2018-Jun-13 21:28N 64°51' E 011°16'0 0.0
2018-Jun-13 20:58N 64°51' E 011°16'0 0.0
2018-Jun-13 20:28N 64°51' E 011°16'0 0.0
2018-Jun-13 19:54N 64°51' E 011°16'0 0.0
2018-Jun-13 19:23N 64°51' E 011°16'0 0.0
2018-Jun-13 18:58N 64°51' E 011°16'0 0.0
2018-Jun-13 18:28N 64°51' E 011°16'0 0.0
2018-Jun-13 17:59N 64°51' E 011°16'0 0.0
2018-Jun-13 17:25N 64°51' E 011°16'0 0.0
2018-Jun-13 17:00N 64°51' E 011°16'0 0.0
2018-Jun-13 16:28N 64°51' E 011°16'0 0.0
2018-Jun-13 16:00N 64°51' E 011°16'0 0.0
2018-Jun-13 15:30N 64°51' E 011°16'0 0.0
2018-Jun-13 14:58N 64°51' E 011°16'0 0.0
2018-Jun-13 14:26N 64°51' E 011°16'0 0.0
2018-Jun-13 13:59N 64°51' E 011°16'0 0.0
2018-Jun-13 13:29N 64°51' E 011°16'0 0.0
2018-Jun-13 13:00N 64°51' E 011°16'4 7.3
2018-Jun-13 12:31N 64°49' E 011°08'6 1.0
2018-Jun-13 06:10N 64°49' E 010°54'424.9
2018-Jun-13 06:00N 64°49' E 011°03'611.5
2018-Jun-13 05:29N 64°51' E 011°16'0 0.0
2018-Jun-13 04:59N 64°51' E 011°16'0 0.0
2018-Jun-13 04:30N 64°51' E 011°16'0 0.0
2018-Jun-13 03:59N 64°51' E 011°16'0 0.0
2018-Jun-13 03:29N 64°51' E 011°16'0 0.0
2018-Jun-13 03:00N 64°51' E 011°16'0 0.0
2018-Jun-13 02:30N 64°51' E 011°16'0 0.0
2018-Jun-13 02:00N 64°51' E 011°16'0 0.0
2018-Jun-13 01:30N 64°51' E 011°16'0 0.0
2018-Jun-13 01:00N 64°51' E 011°16'0 0.0
2018-Jun-13 00:30N 64°51' E 011°16'0 0.0
2018-Jun-12 23:59N 64°51' E 011°16'0 0.0
2018-Jun-12 23:30N 64°51' E 011°16'0 0.0
2018-Jun-12 23:00N 64°51' E 011°16'0 0.0
2018-Jun-12 22:30N 64°51' E 011°16'0 0.0
2018-Jun-12 22:00N 64°51' E 011°16'0 0.0
2018-Jun-12 21:28N 64°51' E 011°16'0 0.0
2018-Jun-12 20:58N 64°51' E 011°16'0 0.0
2018-Jun-12 20:28N 64°51' E 011°16'0 0.0
2018-Jun-12 20:00N 64°51' E 011°16'0 0.0
2018-Jun-12 19:30N 64°51' E 011°16'0 0.0
2018-Jun-12 18:57N 64°51' E 011°16'0 0.0
2018-Jun-12 18:28N 64°51' E 011°16'0 0.0
2018-Jun-12 17:58N 64°51' E 011°16'0 0.0
2018-Jun-12 17:28N 64°51' E 011°16'0 0.0
2018-Jun-12 17:00N 64°51' E 011°16'0 0.0
2018-Jun-12 16:30N 64°51' E 011°16'0 0.0
2018-Jun-12 15:59N 64°51' E 011°16'0 0.0
2018-Jun-12 15:30N 64°51' E 011°16'0 0.0
2018-Jun-12 14:58N 64°51' E 011°16'0 0.0
2018-Jun-12 14:26N 64°51' E 011°16'0 0.0
2018-Jun-12 13:58N 64°51' E 011°16'0 0.0
2018-Jun-12 13:28N 64°51' E 011°16'0 0.0
2018-Jun-12 12:56N 64°51' E 011°16'0 0.0
2018-Jun-12 12:28N 64°51' E 011°16'1 2.5
2018-Jun-12 12:00N 64°52' E 011°14'917.7
2018-Jun-12 11:30N 64°57' E 011°29'10 7.1
2018-Jun-12 10:08N 65°05' E 011°44'0 0.1
2018-Jun-12 09:41N 65°05' E 011°44'0 0.0
2018-Jun-12 09:29N 65°05' E 011°44'0 0.0
2018-Jun-12 08:20N 65°05' E 011°44'0 0.1
2018-Jun-12 07:39N 65°05' E 011°43'0 0.0
2018-Jun-12 07:21N 65°05' E 011°43'0 0.0
2018-Jun-12 06:51N 65°05' E 011°43'0 0.0
2018-Jun-12 06:13N 65°05' E 011°43'420.1
2018-Jun-12 06:00N 65°01' E 011°41'1325.5
2018-Jun-12 05:30N 64°53' E 011°18'2 3.9
2018-Jun-12 05:00N 64°51' E 011°16'0 0.0
2018-Jun-12 04:27N 64°51' E 011°16'0 0.0
2018-Jun-12 03:58N 64°51' E 011°16'0 0.0
2018-Jun-12 03:28N 64°51' E 011°16'0 0.0
2018-Jun-12 02:58N 64°51' E 011°16'0 0.0
2018-Jun-12 02:28N 64°51' E 011°16'0 0.0
2018-Jun-12 01:57N 64°51' E 011°16'0 0.0
2018-Jun-12 01:30N 64°51' E 011°16'0 0.0
2018-Jun-12 00:58N 64°51' E 011°16'0 0.0
2018-Jun-12 00:29N 64°51' E 011°16'0 0.0
2018-Jun-11 23:59N 64°51' E 011°16'0 0.0
2018-Jun-11 23:28N 64°51' E 011°16'0 0.0
2018-Jun-11 23:00N 64°51' E 011°16'0 0.0
2018-Jun-11 22:28N 64°51' E 011°16'0 0.0
2018-Jun-11 21:59N 64°51' E 011°16'0 0.0
2018-Jun-11 21:23N 64°51' E 011°16'0 0.0
2018-Jun-11 20:59N 64°51' E 011°16'0 0.0
2018-Jun-11 20:30N 64°51' E 011°16'0 0.0
2018-Jun-11 20:00N 64°51' E 011°16'0 0.0
2018-Jun-11 19:29N 64°51' E 011°16'0 0.0
2018-Jun-11 18:59N 64°51' E 011°16'0 0.0
2018-Jun-11 18:29N 64°51' E 011°16'0 0.0
2018-Jun-11 17:59N 64°51' E 011°16'0 0.0
2018-Jun-11 17:29N 64°51' E 011°16'0 0.0
2018-Jun-11 16:58N 64°51' E 011°16'0 0.0
2018-Jun-11 16:30N 64°51' E 011°16'0 0.0
2018-Jun-11 16:00N 64°51' E 011°16'815.4
2018-Jun-11 15:31N 64°57' E 011°28'1018.3
2018-Jun-11 14:56N 65°05' E 011°43'0 0.0
2018-Jun-11 14:29N 65°05' E 011°43'0 0.0
2018-Jun-11 13:56N 65°05' E 011°43'0 0.1
2018-Jun-11 13:24N 65°05' E 011°43'0 0.0
2018-Jun-11 13:00N 65°05' E 011°43'0 0.1
2018-Jun-11 12:12N 65°05' E 011°43'0 0.0
2018-Jun-11 11:42N 65°05' E 011°43'0 0.1
2018-Jun-11 11:22N 65°05' E 011°43'0 0.0
2018-Jun-11 10:57N 65°05' E 011°43'0 0.0
2018-Jun-11 10:30N 65°05' E 011°43'0 0.0
2018-Jun-11 10:00N 65°05' E 011°43'0 0.1
2018-Jun-11 09:13N 65°05' E 011°44'0 0.0
2018-Jun-11 08:55N 65°05' E 011°44'0 0.0
2018-Jun-11 08:25N 65°05' E 011°44'0 0.1
2018-Jun-11 07:58N 65°05' E 011°44'0 0.0
2018-Jun-11 06:51N 65°05' E 011°44'721.1
2018-Jun-11 06:31N 64°58' E 011°35'1122.5
2018-Jun-11 06:01N 64°51' E 011°14'1 1.8
2018-Jun-11 05:26N 64°51' E 011°16'0 0.0
2018-Jun-11 04:59N 64°51' E 011°16'0 0.0
2018-Jun-11 04:28N 64°51' E 011°16'0 0.0
2018-Jun-11 04:00N 64°51' E 011°16'0 0.0
2018-Jun-11 03:29N 64°51' E 011°16'0 0.0
2018-Jun-11 03:00N 64°51' E 011°16'0 0.0
2018-Jun-11 02:29N 64°51' E 011°16'0 0.0
2018-Jun-11 01:58N 64°51' E 011°16'0 0.0
2018-Jun-11 01:28N 64°51' E 011°16'0 0.0
2018-Jun-11 00:58N 64°51' E 011°16'0 0.0
2018-Jun-11 00:28N 64°51' E 011°16'0 0.0
2018-Jun-10 23:55N 64°51' E 011°16'0 0.0
2018-Jun-10 23:28N 64°51' E 011°16'0 0.0
2018-Jun-10 23:00N 64°51' E 011°16'0 0.0
2018-Jun-10 22:29N 64°51' E 011°16'0 0.0
2018-Jun-10 22:00N 64°51' E 011°16'0 0.0
2018-Jun-10 21:29N 64°51' E 011°16'0 0.0
2018-Jun-10 20:59N 64°51' E 011°16'0 0.0
2018-Jun-10 20:28N 64°51' E 011°16'0 0.0
2018-Jun-10 19:59N 64°51' E 011°16'0 0.0
2018-Jun-10 19:28N 64°51' E 011°16'0 0.0
2018-Jun-10 18:58N 64°51' E 011°16'0 0.0
2018-Jun-10 18:26N 64°51' E 011°16'0 0.0
2018-Jun-10 17:59N 64°51' E 011°16'0 0.0
2018-Jun-10 17:29N 64°51' E 011°16'0 0.0
2018-Jun-10 17:00N 64°51' E 011°16'0 0.0
2018-Jun-10 16:30N 64°51' E 011°16'0 0.0
2018-Jun-10 15:58N 64°51' E 011°16'0 0.0
2018-Jun-10 15:28N 64°51' E 011°16'0 0.0
2018-Jun-10 14:58N 64°51' E 011°16'0 0.0
2018-Jun-10 14:30N 64°51' E 011°16'0 0.0
2018-Jun-10 13:30N 64°51' E 011°16'0 0.0
2018-Jun-10 12:58N 64°51' E 011°16'0 0.0
2018-Jun-10 12:28N 64°51' E 011°16'0 0.0
2018-Jun-10 11:59N 64°51' E 011°16'0 0.0
2018-Jun-10 11:28N 64°51' E 011°16'0 0.0
2018-Jun-10 10:58N 64°51' E 011°16'0 0.0
2018-Jun-10 10:27N 64°51' E 011°16'0 0.0
2018-Jun-10 10:00N 64°51' E 011°16'0 0.0
2018-Jun-10 09:30N 64°51' E 011°16'0 0.0
2018-Jun-10 08:58N 64°51' E 011°16'0 0.0
2018-Jun-10 08:30N 64°51' E 011°16'0 0.0
2018-Jun-10 07:59N 64°51' E 011°16'0 0.0
2018-Jun-10 07:30N 64°51' E 011°16'0 0.0
2018-Jun-10 07:00N 64°51' E 011°16'0 0.0
2018-Jun-10 06:29N 64°51' E 011°16'0 0.0
2018-Jun-10 05:59N 64°51' E 011°16'0 0.0
2018-Jun-10 05:29N 64°51' E 011°16'0 0.0
2018-Jun-10 04:54N 64°51' E 011°16'0 0.0
2018-Jun-10 04:30N 64°51' E 011°16'0 0.0
2018-Jun-10 04:00N 64°51' E 011°16'0 0.0
2018-Jun-10 03:30N 64°51' E 011°16'0 0.0
2018-Jun-10 03:00N 64°51' E 011°16'0 0.0
2018-Jun-10 02:29N 64°51' E 011°16'0 0.0
2018-Jun-10 01:59N 64°51' E 011°16'0 0.0
2018-Jun-10 01:30N 64°51' E 011°16'0 0.0
2018-Jun-10 00:57N 64°51' E 011°16'0 0.0
2018-Jun-10 00:29N 64°51' E 011°16'0 0.0
2018-Jun-09 23:58N 64°51' E 011°16'0 0.0
2018-Jun-09 23:28N 64°51' E 011°16'0 0.0
2018-Jun-09 22:59N 64°51' E 011°16'0 0.0
2018-Jun-09 22:30N 64°51' E 011°16'0 0.0
2018-Jun-09 22:00N 64°51' E 011°16'0 0.0
2018-Jun-09 21:30N 64°51' E 011°16'0 0.0
2018-Jun-09 21:00N 64°51' E 011°16'0 0.0
2018-Jun-09 20:30N 64°51' E 011°16'0 0.0
2018-Jun-09 20:00N 64°51' E 011°16'0 0.0
2018-Jun-09 19:30N 64°51' E 011°16'0 0.0
2018-Jun-09 18:59N 64°51' E 011°16'0 0.0
2018-Jun-09 18:28N 64°51' E 011°16'0 0.0
2018-Jun-09 17:58N 64°51' E 011°16'0 0.0
2018-Jun-09 17:29N 64°51' E 011°16'0 0.0
2018-Jun-09 16:59N 64°51' E 011°16'0 0.0
2018-Jun-09 16:27N 64°51' E 011°16'0 0.0
2018-Jun-09 16:00N 64°51' E 011°16'0 0.0
2018-Jun-09 14:58N 64°51' E 011°16'0 0.0
2018-Jun-09 14:28N 64°51' E 011°16'0 0.0
2018-Jun-09 13:58N 64°51' E 011°16'0 0.0
2018-Jun-09 13:28N 64°51' E 011°16'0 0.0
2018-Jun-09 13:00N 64°51' E 011°16'0 0.0
2018-Jun-09 12:30N 64°51' E 011°16'0 0.0
2018-Jun-09 11:58N 64°51' E 011°16'0 0.0
2018-Jun-09 11:29N 64°51' E 011°16'0 0.0
2018-Jun-09 10:58N 64°51' E 011°16'0 0.0
2018-Jun-09 10:29N 64°51' E 011°16'0 0.0
2018-Jun-09 09:54N 64°51' E 011°16'0 0.0
2018-Jun-09 09:20N 64°51' E 011°16'0 0.0
2018-Jun-09 08:58N 64°51' E 011°16'0 0.0
2018-Jun-09 08:28N 64°51' E 011°16'0 0.0
2018-Jun-09 07:58N 64°51' E 011°16'0 0.0
2018-Jun-09 07:28N 64°51' E 011°16'0 0.0
2018-Jun-09 06:58N 64°51' E 011°16'0 0.0
2018-Jun-09 06:28N 64°51' E 011°16'0 0.0
2018-Jun-09 05:59N 64°51' E 011°16'0 0.0
2018-Jun-09 05:28N 64°51' E 011°16'0 0.0
2018-Jun-09 04:59N 64°51' E 011°16'0 0.0
2018-Jun-09 04:30N 64°51' E 011°16'0 0.0
2018-Jun-09 04:00N 64°51' E 011°16'0 0.0
2018-Jun-09 03:29N 64°51' E 011°16'0 0.0
2018-Jun-09 03:00N 64°51' E 011°16'0 0.0
2018-Jun-09 02:30N 64°51' E 011°16'0 0.0
2018-Jun-09 02:00N 64°51' E 011°16'0 0.0
2018-Jun-09 01:30N 64°51' E 011°16'0 0.0
2018-Jun-09 01:00N 64°51' E 011°16'0 0.0
2018-Jun-09 00:28N 64°51' E 011°16'0 0.0
2018-Jun-09 00:00N 64°51' E 011°16'0 0.0
2018-Jun-08 23:29N 64°51' E 011°16'0 0.0
2018-Jun-08 22:58N 64°51' E 011°16'0 0.0
2018-Jun-08 22:29N 64°51' E 011°16'0 0.0
2018-Jun-08 21:59N 64°51' E 011°16'0 0.0
2018-Jun-08 21:29N 64°51' E 011°16'0 0.0
2018-Jun-08 20:53N 64°51' E 011°16'0 0.0
2018-Jun-08 20:24N 64°51' E 011°16'0 0.0
2018-Jun-08 20:00N 64°51' E 011°16'  

Dump ship's entire track history